Decoded Metar for KPHP (PHILIP in SD, USA) (IATA:PHP) | Meteo·Mobile Aviation Weather
aviador You're here:

KPHP Decoded Metar

PHILIP in SD, USA
Report Time2018-11-18 06:55:00
UTC Time2018-11-18 07:39:40
Flight Rules vfr VFR
WindCalm
Visibility9999 m
Phenomena:N/A
Clouds:N/A
Expected CloudBase > 400 ft AGL from Temp-Dew spread
CeilingNone
Temp-11°C (ISA -22)
Dew Point-12°C (92% RH)
AAT-14.2°C
QNH1026 hPa
Density Alt-892 ft
Elevation2,205 ft
Report Wrong Elevation
Raw Report
KPHP 180655Z AUTO 00000KT 10SM CLR M11/M12 A3029 RMK AO2 SLP292
I1000 T11061122 410611111=

Extra information for KPHP:More info

Metar Taf Metar & Taf Last 4 Metars F.Rules Stats Wind Profile Meteogram Temp Stats Airport Information Weather charts Add Link Nearby VenuesMetar ALERT Operation Metar Decoded Social comments

AIRNAV info for KPHP